KRTN/RTN METAR and TAF weather

Enter ICAO airport designator
Station Type Date Time Source
KRTN METAR 2019/07/15 19:53 UTC NOAA

KRTN 151953Z AUTO 16004KT 10SM SCT090 32/09 A3016 RMK AO2 SLP105 T03170089


Station Type Date Time Source
KRTN Decoded METAR 2019/07/15 19:53 UTC NOAA

Raton, Raton Municipal \ Crews Field Airport, NM, United States (KRTN) 36-44-31N 104-39-28W 1939M
Jul 15, 2019 - 03:53 PM EDT / 2019.07.15 1953 UTC
Wind: from the SSE (160 degrees) at 5 MPH (4 KT):0
Visibility: 10 mile(s):0
Sky conditions: partly cloudy
Temperature: 89.1 F (31.7 C)
Dew Point: 48.0 F (8.9 C)
Relative Humidity: 24%
Pressure (altimeter): 30.16 in. Hg (1021 hPa)
ob: KRTN 151953Z AUTO 16004KT 10SM SCT090 32/09 A3016 RMK AO2 SLP105 T03170089
cycle: 20

Station Type Date Time Source
KRTN TAF UTC NOAA

Error!

Example: see airport list